Time;durP1;ratioP1;P1;durP2;ratioP2;P2;SDS_P1;SDS_P2;PMS_P1;PMS_P2;Temp;Humidity;BMP_temperature;BMP_pressure;BME280_temperature;BME280_humidity;BME280_pressure;Samples;Min_cycle;Max_cycle;Signal;HPM_P1;HPM_P2
2024/02/13 00:00:46;;;;;;;11.90;7.57;;;;;;;;;;772000;180;918476;-65
2024/02/13 00:03:10;;;;;;;13.18;7.78;;;;;;;;;;770815;180;816514;-65
2024/02/13 00:05:35;;;;;;;13.57;7.80;;;;;;;;;;773756;180;1015301;-65
2024/02/13 00:08:01;;;;;;;9.60;6.30;;;;;;;;;;767119;180;910257;-66
2024/02/13 00:10:27;;;;;;;16.10;7.83;;;;;;;;;;773059;180;909618;-67
2024/02/13 00:12:53;;;;;;;12.75;7.90;;;;;;;;;;767464;180;919063;-66
2024/02/13 00:15:20;;;;;;;12.10;8.17;;;;;;;;;;769052;180;889296;-68
2024/02/13 00:17:45;;;;;;;18.67;8.80;;;;;;;;;;771399;180;919091;-65
2024/02/13 00:20:13;;;;;;;21.73;9.80;;;;;;;;;;767610;180;917553;-66
2024/02/13 00:22:37;;;;;;;12.43;7.83;;;;;;;;;;767689;180;921513;-65
2024/02/13 00:25:03;;;;;;;21.53;11.90;;;;;;;;;;791905;176;26455;-65
2024/02/13 00:27:32;;;;;;;16.20;9.35;;;;;;;;;;767289;177;916140;-67
2024/02/13 00:29:55;;;;;;;19.70;12.03;;;;;;;;;;770648;180;921445;-68
2024/02/13 00:32:21;;;;;;;19.80;10.83;;;;;;;;;;766983;180;919243;-68
2024/02/13 00:34:46;;;;;;;14.17;7.97;;;;;;;;;;768013;182;919347;-66
2024/02/13 00:37:13;;;;;;;11.63;8.13;;;;;;;;;;774090;179;918413;-66
2024/02/13 00:39:38;;;;;;;13.40;8.98;;;;;;;;;;770315;180;918765;-66
2024/02/13 00:42:04;;;;;;;20.30;9.43;;;;;;;;;;775650;179;884369;-66
2024/02/13 00:44:30;;;;;;;13.93;8.73;;;;;;;;;;767232;180;919254;-65
2024/02/13 00:46:57;;;;;;;10.63;7.70;;;;;;;;;;769998;180;918015;-66
2024/02/13 00:49:22;;;;;;;10.27;7.17;;;;;;;;;;772005;180;918813;-65
2024/02/13 00:51:47;;;;;;;7.60;5.77;;;;;;;;;;768981;180;918904;-65
2024/02/13 00:54:14;;;;;;;9.10;5.50;;;;;;;;;;767841;180;919161;-65
2024/02/13 00:56:40;;;;;;;7.65;5.80;;;;;;;;;;770260;180;918299;-66
2024/02/13 00:59:07;;;;;;;10.93;6.57;;;;;;;;;;772405;180;844447;-66
2024/02/13 01:01:32;;;;;;;8.03;6.20;;;;;;;;;;761559;181;919719;-66
2024/02/13 01:03:57;;;;;;;10.13;7.33;;;;;;;;;;765975;180;915157;-65
2024/02/13 01:06:23;;;;;;;10.00;6.93;;;;;;;;;;775074;180;919002;-67
2024/02/13 01:08:49;;;;;;;10.47;6.20;;;;;;;;;;770722;179;815570;-66
2024/02/13 01:11:17;;;;;;;9.57;6.43;;;;;;;;;;768915;179;943585;-66
2024/02/13 01:13:41;;;;;;;10.47;7.30;;;;;;;;;;773479;180;801504;-64
2024/02/13 01:16:07;;;;;;;9.67;7.10;;;;;;;;;;769030;180;920243;-64
2024/02/13 01:18:34;;;;;;;9.00;6.27;;;;;;;;;;770013;180;817128;-66
2024/02/13 01:20:58;;;;;;;10.33;5.50;;;;;;;;;;772994;180;891654;-66
2024/02/13 01:23:24;;;;;;;8.10;5.40;;;;;;;;;;764011;180;949739;-66
2024/02/13 01:25:50;;;;;;;8.47;5.40;;;;;;;;;;765440;180;920358;-67
2024/02/13 01:28:16;;;;;;;9.70;6.07;;;;;;;;;;768872;180;821329;-65
2024/02/13 01:30:42;;;;;;;10.93;6.27;;;;;;;;;;773746;180;917004;-66
2024/02/13 01:33:07;;;;;;;8.43;5.87;;;;;;;;;;770268;180;919479;-66
2024/02/13 01:35:34;;;;;;;13.45;7.20;;;;;;;;;;759312;183;887071;-65
2024/02/13 01:37:59;;;;;;;8.63;5.77;;;;;;;;;;760402;182;917707;-66
2024/02/13 01:40:25;;;;;;;9.95;6.15;;;;;;;;;;755677;184;917375;-66
2024/02/13 01:42:51;;;;;;;8.73;5.43;;;;;;;;;;756650;184;918614;-66
2024/02/13 01:45:17;;;;;;;13.07;7.33;;;;;;;;;;764647;182;919052;-66
2024/02/13 01:47:43;;;;;;;8.87;6.70;;;;;;;;;;761148;181;919401;-65
2024/02/13 01:50:09;;;;;;;8.63;6.10;;;;;;;;;;769369;179;920674;-65
2024/02/13 01:52:35;;;;;;;9.40;5.10;;;;;;;;;;771339;180;918950;-65
2024/02/13 01:55:02;;;;;;;8.37;6.20;;;;;;;;;;764395;183;914777;-66
2024/02/13 01:57:29;;;;;;;9.60;5.73;;;;;;;;;;772116;179;917469;-65
2024/02/13 01:59:52;;;;;;;8.43;6.10;;;;;;;;;;766761;181;915622;-67
2024/02/13 02:02:18;;;;;;;8.03;5.10;;;;;;;;;;775290;180;915232;-65
2024/02/13 02:04:44;;;;;;;12.57;5.50;;;;;;;;;;770994;180;913800;-68
2024/02/13 02:07:10;;;;;;;9.83;6.27;;;;;;;;;;777467;180;812327;-66
2024/02/13 02:09:36;;;;;;;7.97;4.93;;;;;;;;;;772407;180;920377;-65
2024/02/13 02:12:02;;;;;;;8.10;5.70;;;;;;;;;;764833;181;923103;-66
2024/02/13 02:14:28;;;;;;;13.30;6.00;;;;;;;;;;768615;180;840081;-65
2024/02/13 02:16:53;;;;;;;7.50;5.47;;;;;;;;;;772008;180;919124;-66
2024/02/13 02:19:19;;;;;;;9.40;5.87;;;;;;;;;;769176;180;916590;-66
2024/02/13 02:21:47;;;;;;;9.93;6.20;;;;;;;;;;767508;180;920079;-66
2024/02/13 02:24:11;;;;;;;7.33;5.33;;;;;;;;;;769444;180;923910;-65
2024/02/13 02:26:37;;;;;;;8.13;6.00;;;;;;;;;;775998;179;915416;-66
2024/02/13 02:29:03;;;;;;;10.00;5.07;;;;;;;;;;766855;180;919576;-67
2024/02/13 02:31:28;;;;;;;13.47;6.80;;;;;;;;;;766283;180;922390;-66
2024/02/13 02:33:55;;;;;;;18.40;9.67;;;;;;;;;;774017;180;841470;-65
2024/02/13 02:36:20;;;;;;;11.30;6.43;;;;;;;;;;766780;180;914413;-65
2024/02/13 02:38:46;;;;;;;21.13;11.70;;;;;;;;;;767072;180;915350;-66
2024/02/13 02:41:12;;;;;;;28.55;12.73;;;;;;;;;;774615;180;813850;-66
2024/02/13 02:43:37;;;;;;;11.77;7.30;;;;;;;;;;766461;180;920957;-65
2024/02/13 02:46:03;;;;;;;11.33;6.40;;;;;;;;;;769479;180;885501;-67
2024/02/13 02:48:30;;;;;;;12.00;7.37;;;;;;;;;;771465;180;914953;-64
2024/02/13 02:50:56;;;;;;;14.00;8.07;;;;;;;;;;775044;180;919867;-66
2024/02/13 02:53:23;;;;;;;16.97;7.70;;;;;;;;;;767819;180;919354;-66
2024/02/13 02:55:47;;;;;;;15.93;9.47;;;;;;;;;;771696;180;897795;-69
2024/02/13 02:58:14;;;;;;;11.43;7.32;;;;;;;;;;774321;178;917323;-65
2024/02/13 03:00:39;;;;;;;13.23;7.83;;;;;;;;;;771442;180;919671;-66
2024/02/13 03:03:05;;;;;;;16.90;11.70;;;;;;;;;;769643;180;922131;-64
2024/02/13 03:05:32;;;;;;;18.33;8.33;;;;;;;;;;773152;180;920167;-67
2024/02/13 03:07:56;;;;;;;17.10;8.20;;;;;;;;;;769414;180;922101;-66
2024/02/13 03:10:22;;;;;;;9.68;6.85;;;;;;;;;;770162;180;918780;-65
2024/02/13 03:12:48;;;;;;;9.00;6.30;;;;;;;;;;773797;180;920567;-66
2024/02/13 03:15:14;;;;;;;9.57;5.67;;;;;;;;;;768046;180;819573;-65
2024/02/13 03:17:40;;;;;;;10.73;5.97;;;;;;;;;;767459;180;916225;-64
2024/02/13 03:20:10;;;;;;;9.13;4.60;;;;;;;;;;771386;180;937881;-65
2024/02/13 03:22:36;;;;;;;8.80;5.50;;;;;;;;;;773099;179;918729;-65
2024/02/13 03:24:59;;;;;;;10.37;6.00;;;;;;;;;;767205;180;918854;-66
2024/02/13 03:27:25;;;;;;;11.73;6.03;;;;;;;;;;766816;180;919137;-65
2024/02/13 03:29:50;;;;;;;6.70;4.40;;;;;;;;;;774985;180;900725;-66
2024/02/13 03:32:16;;;;;;;8.10;5.30;;;;;;;;;;771428;180;919322;-64
2024/02/13 03:34:42;;;;;;;6.43;4.90;;;;;;;;;;768161;180;922216;-66
2024/02/13 03:37:08;;;;;;;10.50;5.23;;;;;;;;;;774364;180;837663;-64
2024/02/13 03:39:34;;;;;;;11.53;5.80;;;;;;;;;;766160;180;919155;-65
2024/02/13 03:41:59;;;;;;;8.20;5.53;;;;;;;;;;766963;180;917362;-66
2024/02/13 03:44:26;;;;;;;6.37;4.97;;;;;;;;;;771104;180;918572;-64
2024/02/13 03:46:52;;;;;;;6.83;4.47;;;;;;;;;;772582;178;918636;-66
2024/02/13 03:49:17;;;;;;;6.97;4.90;;;;;;;;;;769526;179;921605;-66
2024/02/13 03:51:43;;;;;;;8.57;5.53;;;;;;;;;;765886;180;920139;-66
2024/02/13 03:54:09;;;;;;;8.63;5.28;;;;;;;;;;773039;180;818080;-67
2024/02/13 03:56:34;;;;;;;14.60;4.73;;;;;;;;;;773500;176;1020314;-64
2024/02/13 03:59:02;;;;;;;8.97;5.20;;;;;;;;;;743481;185;919495;-65
2024/02/13 04:01:26;;;;;;;8.17;5.50;;;;;;;;;;736052;188;920343;-67
2024/02/13 04:03:52;;;;;;;8.73;5.47;;;;;;;;;;756654;182;877663;-65
2024/02/13 04:06:18;;;;;;;6.83;4.73;;;;;;;;;;767322;179;928636;-65
2024/02/13 04:08:45;;;;;;;7.77;4.93;;;;;;;;;;773403;180;917752;-65
2024/02/13 04:11:10;;;;;;;10.70;4.70;;;;;;;;;;770070;180;919579;-68
2024/02/13 04:13:35;;;;;;;7.50;4.20;;;;;;;;;;773705;179;815825;-67
2024/02/13 04:16:01;;;;;;;7.10;4.87;;;;;;;;;;769156;179;811917;-66
2024/02/13 04:18:27;;;;;;;7.62;5.43;;;;;;;;;;771207;180;823409;-66
2024/02/13 04:20:53;;;;;;;11.80;5.50;;;;;;;;;;773568;179;920582;-68
2024/02/13 04:23:19;;;;;;;9.30;4.80;;;;;;;;;;769871;180;918681;-66
2024/02/13 04:25:45;;;;;;;9.10;5.37;;;;;;;;;;775973;180;712832;-65
2024/02/13 04:28:10;;;;;;;13.00;5.70;;;;;;;;;;767325;180;1226353;-64
2024/02/13 04:30:40;;;;;;;7.60;5.13;;;;;;;;;;772780;180;917758;-66
2024/02/13 04:33:03;;;;;;;7.73;5.10;;;;;;;;;;773536;179;919320;-67
2024/02/13 04:35:29;;;;;;;7.60;4.90;;;;;;;;;;772706;179;1025196;-65
2024/02/13 04:37:55;;;;;;;9.33;5.13;;;;;;;;;;768950;180;922772;-65
2024/02/13 04:40:21;;;;;;;8.43;5.07;;;;;;;;;;768896;180;1018935;-66
2024/02/13 04:42:48;;;;;;;6.53;4.43;;;;;;;;;;769559;180;913516;-66
2024/02/13 04:45:12;;;;;;;10.68;5.18;;;;;;;;;;764828;180;922112;-66
2024/02/13 04:47:39;;;;;;;8.53;5.90;;;;;;;;;;768147;180;856419;-64
2024/02/13 04:50:07;;;;;;;6.10;4.22;;;;;;;;;;772985;180;917662;-67
2024/02/13 04:52:33;;;;;;;8.13;4.40;;;;;;;;;;769582;180;816855;-64
2024/02/13 04:54:58;;;;;;;8.33;5.70;;;;;;;;;;768379;180;918882;-66
2024/02/13 04:57:25;;;;;;;7.63;5.20;;;;;;;;;;772063;179;919018;-64
2024/02/13 04:59:51;;;;;;;9.47;5.40;;;;;;;;;;768088;180;919423;-64
2024/02/13 05:02:17;;;;;;;9.63;5.87;;;;;;;;;;771024;180;852160;-64
2024/02/13 05:07:20;;;;;;;13.23;7.47;;;;;;;;;;771884;180;920398;-67
2024/02/13 05:09:46;;;;;;;10.43;5.67;;;;;;;;;;769925;180;817307;-65
2024/02/13 05:12:11;;;;;;;7.65;5.35;;;;;;;;;;769848;180;865530;-65
2024/02/13 05:14:37;;;;;;;8.50;5.37;;;;;;;;;;770987;180;878386;-66
2024/02/13 05:17:04;;;;;;;12.13;5.33;;;;;;;;;;776202;180;924645;-65
2024/02/13 05:19:29;;;;;;;10.33;6.33;;;;;;;;;;773767;180;619542;-64
2024/02/13 05:21:57;;;;;;;9.97;5.60;;;;;;;;;;769880;180;914879;-65
2024/02/13 05:24:21;;;;;;;7.70;4.77;;;;;;;;;;775863;180;818358;-65
2024/02/13 05:26:47;;;;;;;8.77;5.37;;;;;;;;;;775942;179;629522;-65
2024/02/13 05:29:13;;;;;;;8.33;5.40;;;;;;;;;;770062;180;920467;-64
2024/02/13 05:31:38;;;;;;;7.90;5.60;;;;;;;;;;778016;180;632615;-65
2024/02/13 05:34:06;;;;;;;9.10;5.90;;;;;;;;;;766787;180;918429;-67
2024/02/13 05:36:30;;;;;;;8.77;7.00;;;;;;;;;;769888;180;934973;-65
2024/02/13 05:38:56;;;;;;;11.25;6.57;;;;;;;;;;776222;180;921817;-64
2024/02/13 05:41:22;;;;;;;11.27;6.07;;;;;;;;;;770262;180;914807;-66
2024/02/13 05:43:48;;;;;;;17.17;7.10;;;;;;;;;;770638;180;819871;-64
2024/02/13 05:46:14;;;;;;;14.17;8.23;;;;;;;;;;770349;180;919676;-66
2024/02/13 05:48:42;;;;;;;22.73;12.17;;;;;;;;;;774877;180;912639;-63
2024/02/13 05:51:09;;;;;;;19.33;10.30;;;;;;;;;;771315;179;919385;-66
2024/02/13 05:53:31;;;;;;;20.70;12.20;;;;;;;;;;767848;179;917388;-67
2024/02/13 05:55:57;;;;;;;16.65;8.65;;;;;;;;;;772204;180;809398;-63
2024/02/13 05:58:27;;;;;;;13.90;9.37;;;;;;;;;;768523;180;840808;-67
2024/02/13 06:00:50;;;;;;;11.87;7.53;;;;;;;;;;767478;180;918442;-65
2024/02/13 06:03:16;;;;;;;15.40;9.40;;;;;;;;;;772484;180;809871;-64
2024/02/13 06:05:41;;;;;;;11.10;8.50;;;;;;;;;;768944;180;918452;-66
2024/02/13 06:08:07;;;;;;;9.60;6.63;;;;;;;;;;772053;180;831083;-65
2024/02/13 06:10:35;;;;;;;14.03;7.10;;;;;;;;;;773634;180;698424;-64
2024/02/13 06:12:59;;;;;;;11.90;7.57;;;;;;;;;;775407;178;624864;-65
2024/02/13 06:15:25;;;;;;;11.07;6.87;;;;;;;;;;768188;180;919574;-66
2024/02/13 06:17:51;;;;;;;12.80;8.23;;;;;;;;;;767949;180;917781;-65
2024/02/13 06:20:18;;;;;;;11.87;7.80;;;;;;;;;;773448;180;925182;-66
2024/02/13 06:22:42;;;;;;;9.80;6.53;;;;;;;;;;769501;180;922453;-64
2024/02/13 06:25:11;;;;;;;15.07;8.80;;;;;;;;;;769275;180;920793;-67
2024/02/13 06:27:34;;;;;;;12.37;7.00;;;;;;;;;;777008;180;817260;-67
2024/02/13 06:30:00;;;;;;;8.90;5.77;;;;;;;;;;767749;180;818370;-65
2024/02/13 06:32:26;;;;;;;11.50;6.30;;;;;;;;;;768273;180;919150;-66
2024/02/13 06:34:53;;;;;;;10.70;7.50;;;;;;;;;;773714;180;820636;-68
2024/02/13 06:37:19;;;;;;;8.33;6.70;;;;;;;;;;770487;180;927959;-64
2024/02/13 06:39:44;;;;;;;13.40;8.00;;;;;;;;;;765078;181;914054;-65
2024/02/13 06:42:11;;;;;;;9.67;6.47;;;;;;;;;;766242;181;918994;-66
2024/02/13 06:44:37;;;;;;;8.90;6.30;;;;;;;;;;773622;180;917312;-66
2024/02/13 06:47:06;;;;;;;12.07;5.70;;;;;;;;;;769004;180;920175;-66
2024/02/13 06:49:28;;;;;;;11.53;6.70;;;;;;;;;;770342;180;920291;-65
2024/02/13 06:51:54;;;;;;;13.27;7.57;;;;;;;;;;772384;180;919312;-64
2024/02/13 06:54:20;;;;;;;12.60;8.73;;;;;;;;;;769068;180;923756;-66
2024/02/13 06:56:45;;;;;;;14.60;10.40;;;;;;;;;;767341;180;917694;-63
2024/02/13 06:59:11;;;;;;;12.90;8.10;;;;;;;;;;775124;180;852344;-71
2024/02/13 07:01:37;;;;;;;11.20;6.83;;;;;;;;;;769378;180;918267;-68
2024/02/13 07:04:03;;;;;;;15.17;8.17;;;;;;;;;;767666;180;918579;-64
2024/02/13 07:06:29;;;;;;;10.68;7.87;;;;;;;;;;767810;180;918385;-65
2024/02/13 07:08:55;;;;;;;9.63;6.90;;;;;;;;;;773498;180;920236;-64
2024/02/13 07:11:20;;;;;;;7.17;5.50;;;;;;;;;;770623;180;918617;-66
2024/02/13 07:13:46;;;;;;;9.60;6.97;;;;;;;;;;768688;180;919544;-63
2024/02/13 07:16:12;;;;;;;14.90;10.10;;;;;;;;;;773640;180;920622;-66
2024/02/13 07:18:39;;;;;;;13.10;8.77;;;;;;;;;;769297;180;919659;-68
2024/02/13 07:21:06;;;;;;;14.17;9.97;;;;;;;;;;768200;180;919517;-66
2024/02/13 07:23:30;;;;;;;13.40;7.80;;;;;;;;;;773794;180;818454;-64
2024/02/13 07:25:56;;;;;;;12.30;7.90;;;;;;;;;;768094;180;919431;-66
2024/02/13 07:28:22;;;;;;;16.73;9.50;;;;;;;;;;767327;180;919848;-67
2024/02/13 07:30:48;;;;;;;13.02;8.10;;;;;;;;;;771945;180;918185;-63
2024/02/13 07:33:14;;;;;;;12.10;6.90;;;;;;;;;;761765;182;910948;-65
2024/02/13 07:35:39;;;;;;;13.03;7.70;;;;;;;;;;726868;184;917015;-65
2024/02/13 07:38:05;;;;;;;11.90;8.03;;;;;;;;;;761978;182;927971;-65
2024/02/13 07:40:31;;;;;;;15.27;7.90;;;;;;;;;;756648;184;913957;-66
2024/02/13 07:42:57;;;;;;;17.43;11.80;;;;;;;;;;756752;182;918605;-65
2024/02/13 07:45:24;;;;;;;12.17;8.97;;;;;;;;;;761695;181;817584;-66
2024/02/13 07:47:51;;;;;;;10.97;8.30;;;;;;;;;;765576;182;891597;-66
2024/02/13 07:50:15;;;;;;;14.40;9.07;;;;;;;;;;770300;179;1021781;-64
2024/02/13 07:52:40;;;;;;;13.73;9.73;;;;;;;;;;769068;180;911632;-66
2024/02/13 07:55:06;;;;;;;18.03;11.80;;;;;;;;;;778223;180;918542;-65
2024/02/13 07:57:34;;;;;;;17.70;12.40;;;;;;;;;;766633;181;890319;-66
2024/02/13 07:59:59;;;;;;;27.35;15.73;;;;;;;;;;769181;180;938364;-65
2024/02/13 08:02:25;;;;;;;27.70;15.07;;;;;;;;;;766486;180;1125254;-67
2024/02/13 08:04:51;;;;;;;37.73;22.50;;;;;;;;;;773503;180;1016456;-67
2024/02/13 08:07:16;;;;;;;36.57;21.57;;;;;;;;;;769413;180;819155;-65
2024/02/13 08:09:42;;;;;;;35.90;22.10;;;;;;;;;;769524;180;918825;-68
2024/02/13 08:12:08;;;;;;;21.50;11.57;;;;;;;;;;773054;180;918504;-66
2024/02/13 08:14:34;;;;;;;18.63;11.80;;;;;;;;;;767732;180;886566;-68
2024/02/13 08:17:00;;;;;;;12.97;10.60;;;;;;;;;;767305;180;926650;-65
2024/02/13 08:19:26;;;;;;;15.53;10.00;;;;;;;;;;772967;180;924203;-65
2024/02/13 08:21:52;;;;;;;15.00;10.50;;;;;;;;;;766273;180;915141;-68
2024/02/13 08:24:18;;;;;;;18.40;11.77;;;;;;;;;;767424;180;921189;-65
2024/02/13 08:26:44;;;;;;;28.67;17.80;;;;;;;;;;765383;180;919123;-67
2024/02/13 08:29:10;;;;;;;23.10;15.83;;;;;;;;;;772970;180;919961;-64
2024/02/13 08:31:36;;;;;;;21.13;14.23;;;;;;;;;;763547;180;817921;-65
2024/02/13 08:34:02;;;;;;;19.87;12.57;;;;;;;;;;767835;180;992590;-67
2024/02/13 08:36:29;;;;;;;13.13;9.17;;;;;;;;;;778892;179;813500;-68
2024/02/13 08:38:54;;;;;;;11.33;8.10;;;;;;;;;;770550;179;919567;-68
2024/02/13 08:41:22;;;;;;;14.93;9.60;;;;;;;;;;769103;180;921237;-66
2024/02/13 08:43:47;;;;;;;11.73;8.20;;;;;;;;;;775632;179;917596;-64
2024/02/13 08:46:13;;;;;;;13.57;8.53;;;;;;;;;;765740;179;920328;-68
2024/02/13 08:48:37;;;;;;;14.93;9.60;;;;;;;;;;767516;179;919023;-65
2024/02/13 08:51:05;;;;;;;15.73;10.27;;;;;;;;;;772361;180;918835;-68
2024/02/13 08:53:29;;;;;;;13.60;8.40;;;;;;;;;;767178;180;919736;-67
2024/02/13 08:55:55;;;;;;;14.50;11.00;;;;;;;;;;770525;178;918700;-69
2024/02/13 08:58:21;;;;;;;9.98;7.00;;;;;;;;;;769787;180;918116;-64
2024/02/13 09:00:47;;;;;;;13.63;7.77;;;;;;;;;;776506;180;919386;-64
2024/02/13 09:03:13;;;;;;;9.57;7.07;;;;;;;;;;770235;180;918191;-64
2024/02/13 09:05:39;;;;;;;11.53;8.13;;;;;;;;;;769638;180;917663;-65
2024/02/13 09:08:05;;;;;;;10.77;6.90;;;;;;;;;;771937;180;902139;-68
2024/02/13 09:10:30;;;;;;;10.13;5.73;;;;;;;;;;773865;179;919013;-68
2024/02/13 09:12:56;;;;;;;11.37;7.87;;;;;;;;;;769623;179;879386;-70
2024/02/13 09:15:23;;;;;;;11.67;7.77;;;;;;;;;;779291;180;816133;-65
2024/02/13 09:17:48;;;;;;;10.83;7.20;;;;;;;;;;764006;180;918123;-65
2024/02/13 09:20:15;;;;;;;11.90;7.10;;;;;;;;;;767960;180;923918;-68
2024/02/13 09:22:43;;;;;;;14.37;7.53;;;;;;;;;;769972;180;754179;-65
2024/02/13 09:25:07;;;;;;;12.83;9.47;;;;;;;;;;774569;180;816914;-70
2024/02/13 09:27:33;;;;;;;10.53;6.53;;;;;;;;;;769099;180;919965;-68
2024/02/13 09:29:58;;;;;;;9.80;5.70;;;;;;;;;;768457;180;914470;-65
2024/02/13 09:32:24;;;;;;;8.53;5.83;;;;;;;;;;774069;180;909455;-66
2024/02/13 09:34:50;;;;;;;8.67;4.67;;;;;;;;;;768299;180;919718;-65
2024/02/13 09:37:16;;;;;;;7.17;5.17;;;;;;;;;;768943;180;854849;-64
2024/02/13 09:39:42;;;;;;;6.00;4.43;;;;;;;;;;772342;180;927412;-65
2024/02/13 09:42:07;;;;;;;8.30;6.37;;;;;;;;;;765158;180;919324;-69
2024/02/13 09:44:33;;;;;;;8.32;5.68;;;;;;;;;;767103;180;918404;-70
2024/02/13 09:47:00;;;;;;;7.10;5.37;;;;;;;;;;772192;180;932430;-65
2024/02/13 09:49:26;;;;;;;7.80;5.70;;;;;;;;;;765703;182;919217;-69
2024/02/13 09:51:52;;;;;;;7.97;6.20;;;;;;;;;;769792;179;913465;-68
2024/02/13 09:54:18;;;;;;;8.27;5.20;;;;;;;;;;766098;180;918921;-65
2024/02/13 09:56:43;;;;;;;7.43;5.40;;;;;;;;;;774523;180;824889;-64
2024/02/13 09:59:11;;;;;;;8.50;5.20;;;;;;;;;;772145;180;774969;-65
2024/02/13 10:01:35;;;;;;;7.73;5.87;;;;;;;;;;773642;180;612828;-69
2024/02/13 10:04:02;;;;;;;14.20;6.50;;;;;;;;;;774124;181;816567;-65
2024/02/13 10:06:27;;;;;;;9.80;5.27;;;;;;;;;;771399;178;919661;-65
2024/02/13 10:08:53;;;;;;;8.50;5.13;;;;;;;;;;771721;180;813054;-65
2024/02/13 10:11:18;;;;;;;8.27;5.80;;;;;;;;;;778018;180;630350;-67
2024/02/13 10:13:46;;;;;;;8.20;6.77;;;;;;;;;;773290;180;621838;-69
2024/02/13 10:16:16;;;;;;;10.13;5.67;;;;;;;;;;767568;180;917932;-64
2024/02/13 10:18:44;;;;;;;10.33;4.97;;;;;;;;;;768408;179;918522;-69
2024/02/13 10:21:11;;;;;;;9.70;6.30;;;;;;;;;;773788;180;915931;-69
2024/02/13 10:23:35;;;;;;;9.97;5.67;;;;;;;;;;770434;180;813579;-65
2024/02/13 10:26:00;;;;;;;8.30;4.57;;;;;;;;;;768807;180;920396;-64
2024/02/13 10:28:25;;;;;;;10.33;6.30;;;;;;;;;;773523;180;818431;-63
2024/02/13 10:30:53;;;;;;;16.43;6.43;;;;;;;;;;774529;180;920748;-69
2024/02/13 10:33:19;;;;;;;9.20;6.27;;;;;;;;;;771815;180;814815;-63
2024/02/13 10:35:44;;;;;;;10.23;6.60;;;;;;;;;;769164;180;916046;-68
2024/02/13 10:38:10;;;;;;;11.00;6.57;;;;;;;;;;773783;180;917573;-64
2024/02/13 10:40:39;;;;;;;8.80;6.53;;;;;;;;;;774069;180;715980;-70
2024/02/13 10:43:03;;;;;;;9.80;6.00;;;;;;;;;;768303;180;918559;-65
2024/02/13 10:45:32;;;;;;;12.90;7.70;;;;;;;;;;773259;180;920734;-68
2024/02/13 10:48:13;;;;;;;13.17;8.70;;;;;;;;;;768125;180;916660;-69
2024/02/13 10:50:40;;;;;;;11.40;7.50;;;;;;;;;;763610;179;924757;-68
2024/02/13 10:53:04;;;;;;;11.50;7.73;;;;;;;;;;767941;180;915891;-68
2024/02/13 10:55:30;;;;;;;10.10;6.53;;;;;;;;;;773160;180;891702;-70
2024/02/13 10:57:58;;;;;;;15.07;7.60;;;;;;;;;;769331;180;916236;-68
2024/02/13 11:00:23;;;;;;;18.83;8.10;;;;;;;;;;770927;180;798497;-68
2024/02/13 11:02:51;;;;;;;11.23;7.03;;;;;;;;;;769767;180;817431;-64
2024/02/13 11:05:14;;;;;;;14.70;7.97;;;;;;;;;;773149;180;919017;-68
2024/02/13 11:07:40;;;;;;;15.00;8.60;;;;;;;;;;767988;179;918888;-64
2024/02/13 11:10:08;;;;;;;12.20;8.03;;;;;;;;;;769704;180;853278;-65
2024/02/13 11:12:33;;;;;;;9.70;7.50;;;;;;;;;;773706;180;918858;-65
2024/02/13 11:15:04;;;;;;;9.30;5.87;;;;;;;;;;766711;181;919188;-64
2024/02/13 11:17:31;;;;;;;11.40;7.95;;;;;;;;;;766730;179;918222;-63
2024/02/13 11:19:58;;;;;;;10.30;7.07;;;;;;;;;;771701;180;923923;-65
2024/02/13 11:22:29;;;;;;;14.20;7.63;;;;;;;;;;772835;179;1229078;-70
2024/02/13 11:25:00;;;;;;;12.20;7.40;;;;;;;;;;769268;180;918091;-68
2024/02/13 11:27:23;;;;;;;10.55;7.50;;;;;;;;;;768587;180;919374;-68
2024/02/13 11:29:54;;;;;;;12.17;8.07;;;;;;;;;;768974;180;921272;-69
2024/02/13 11:32:22;;;;;;;12.63;7.90;;;;;;;;;;771290;181;886319;-70
2024/02/13 11:34:50;;;;;;;15.73;6.87;;;;;;;;;;771690;180;749585;-68
2024/02/13 11:37:18;;;;;;;11.87;7.20;;;;;;;;;;766486;180;917912;-68
2024/02/13 11:39:43;;;;;;;12.53;7.57;;;;;;;;;;773761;180;818943;-68
2024/02/13 11:42:09;;;;;;;12.50;7.33;;;;;;;;;;771558;180;884146;-66
2024/02/13 11:44:36;;;;;;;12.07;6.93;;;;;;;;;;769798;179;847357;-68
2024/02/13 11:47:00;;;;;;;12.00;7.60;;;;;;;;;;767909;180;919021;-68
2024/02/13 11:49:27;;;;;;;12.13;8.30;;;;;;;;;;775382;180;915341;-65
2024/02/13 11:51:52;;;;;;;11.83;7.17;;;;;;;;;;767794;180;918942;-68
2024/02/13 11:54:18;;;;;;;9.40;7.27;;;;;;;;;;769360;180;917068;-67
2024/02/13 11:56:44;;;;;;;11.70;7.27;;;;;;;;;;771738;180;875116;-69
2024/02/13 11:59:10;;;;;;;10.30;6.83;;;;;;;;;;766884;180;912530;-64
2024/02/13 12:01:37;;;;;;;9.50;7.23;;;;;;;;;;769754;180;814306;-69
2024/02/13 12:04:01;;;;;;;12.33;7.27;;;;;;;;;;772783;180;935142;-67
2024/02/13 12:06:27;;;;;;;12.10;7.60;;;;;;;;;;767730;180;917694;-65
2024/02/13 12:08:53;;;;;;;12.93;7.62;;;;;;;;;;768265;180;920233;-65
2024/02/13 12:11:20;;;;;;;10.77;7.53;;;;;;;;;;769057;180;922067;-68
2024/02/13 12:13:46;;;;;;;13.63;7.47;;;;;;;;;;761573;181;1021865;-68
2024/02/13 12:16:10;;;;;;;11.53;9.23;;;;;;;;;;770288;180;902315;-68
2024/02/13 12:18:36;;;;;;;11.80;7.77;;;;;;;;;;765704;180;918954;-65
2024/02/13 12:21:02;;;;;;;14.20;7.20;;;;;;;;;;773639;180;813148;-68
2024/02/13 12:23:28;;;;;;;13.20;8.40;;;;;;;;;;771585;180;846385;-65
2024/02/13 12:25:58;;;;;;;10.70;7.00;;;;;;;;;;766604;179;919300;-68
2024/02/13 12:28:23;;;;;;;12.93;7.40;;;;;;;;;;774215;180;921884;-65
2024/02/13 12:30:50;;;;;;;12.60;7.80;;;;;;;;;;769423;178;919697;-65
2024/02/13 12:33:20;;;;;;;10.17;7.13;;;;;;;;;;769376;180;918941;-68
2024/02/13 12:35:46;;;;;;;11.20;7.40;;;;;;;;;;769301;180;842897;-67
2024/02/13 12:38:11;;;;;;;10.37;7.83;;;;;;;;;;775372;179;916460;-65
2024/02/13 12:40:35;;;;;;;7.50;5.90;;;;;;;;;;768140;180;944464;-64
2024/02/13 12:43:03;;;;;;;13.50;8.30;;;;;;;;;;771380;180;990129;-69
2024/02/13 12:45:27;;;;;;;11.73;6.90;;;;;;;;;;772086;180;924658;-65
2024/02/13 12:47:52;;;;;;;10.03;6.73;;;;;;;;;;768061;180;916788;-68
2024/02/13 12:50:18;;;;;;;9.27;7.03;;;;;;;;;;768874;180;857305;-70
2024/02/13 12:52:44;;;;;;;8.33;5.67;;;;;;;;;;771038;179;921754;-69
2024/02/13 12:55:13;;;;;;;10.70;6.77;;;;;;;;;;769430;180;945675;-69
2024/02/13 12:57:36;;;;;;;12.17;7.13;;;;;;;;;;769950;179;916765;-65
2024/02/13 13:00:05;;;;;;;12.00;6.80;;;;;;;;;;773059;180;756391;-68
2024/02/13 13:02:27;;;;;;;12.13;6.70;;;;;;;;;;772171;180;718502;-65
2024/02/13 13:04:53;;;;;;;9.97;6.57;;;;;;;;;;767057;180;1021915;-65
2024/02/13 13:07:19;;;;;;;10.27;6.20;;;;;;;;;;768568;180;921909;-68
2024/02/13 13:09:45;;;;;;;9.80;6.73;;;;;;;;;;772637;179;815822;-69
2024/02/13 13:12:10;;;;;;;9.50;6.17;;;;;;;;;;768172;180;919268;-68
2024/02/13 13:14:37;;;;;;;9.60;6.47;;;;;;;;;;768435;180;941178;-68
2024/02/13 13:17:02;;;;;;;11.30;6.47;;;;;;;;;;772876;180;920052;-68
2024/02/13 13:19:30;;;;;;;10.60;6.60;;;;;;;;;;771723;180;839876;-68
2024/02/13 13:21:54;;;;;;;12.53;7.13;;;;;;;;;;771929;179;919332;-68
2024/02/13 13:24:20;;;;;;;10.87;7.17;;;;;;;;;;770766;181;809383;-70
2024/02/13 13:26:47;;;;;;;8.90;6.47;;;;;;;;;;762926;180;917048;-64
2024/02/13 13:29:12;;;;;;;12.30;8.87;;;;;;;;;;762516;180;919334;-64
2024/02/13 13:31:38;;;;;;;8.60;6.47;;;;;;;;;;766245;180;916726;-69
2024/02/13 13:34:08;;;;;;;10.70;6.20;;;;;;;;;;772407;180;897330;-64
2024/02/13 13:36:33;;;;;;;9.93;6.70;;;;;;;;;;769033;180;842725;-65
2024/02/13 13:38:58;;;;;;;9.23;5.60;;;;;;;;;;767061;179;920049;-68
2024/02/13 13:41:24;;;;;;;14.50;6.80;;;;;;;;;;772900;178;922657;-64
2024/02/13 13:43:51;;;;;;;9.20;5.00;;;;;;;;;;770111;180;921786;-68
2024/02/13 13:46:16;;;;;;;8.83;5.23;;;;;;;;;;769914;180;923838;-64
2024/02/13 13:48:42;;;;;;;12.90;7.93;;;;;;;;;;770748;180;817402;-65
2024/02/13 13:51:08;;;;;;;13.60;6.57;;;;;;;;;;769373;181;909247;-69
2024/02/13 13:53:35;;;;;;;4.90;3.23;;;;;;;;;;774103;179;704056;-64
2024/02/13 13:55:59;;;;;;;6.37;4.30;;;;;;;;;;767837;180;917419;-64
2024/02/13 13:58:25;;;;;;;8.23;4.53;;;;;;;;;;775027;180;812669;-69
2024/02/13 14:00:51;;;;;;;5.57;3.57;;;;;;;;;;767600;180;919375;-64
2024/02/13 14:03:17;;;;;;;4.40;3.80;;;;;;;;;;768652;180;1022197;-68
2024/02/13 14:05:44;;;;;;;11.23;7.00;;;;;;;;;;773417;180;922144;-65
2024/02/13 14:08:09;;;;;;;9.70;5.43;;;;;;;;;;768382;180;919576;-67
2024/02/13 14:10:34;;;;;;;14.90;8.17;;;;;;;;;;771330;180;916550;-70
2024/02/13 14:13:00;;;;;;;9.57;5.87;;;;;;;;;;779126;179;834960;-64
2024/02/13 14:15:29;;;;;;;8.80;5.37;;;;;;;;;;774926;179;919217;-69